Time;durP1;ratioP1;P1;durP2;ratioP2;P2;SDS_P1;SDS_P2;PMS_P1;PMS_P2;Temp;Humidity;BMP_temperature;BMP_pressure;BME280_temperature;BME280_humidity;BME280_pressure;Samples;Min_cycle;Max_cycle;Signal;HPM_P1;HPM_P2
2022/09/28 00:01:55;;;;;;;11.50;8.00;;;;;;;14.28;97.29;99379.36;108263;1253;59491;-83
2022/09/28 00:04:24;;;;;;;10.10;8.50;;;;;;;14.26;96.99;99376.74;107238;1254;71600;-82
2022/09/28 00:06:53;;;;;;;13.00;8.90;;;;;;;14.28;96.98;99376.17;106823;1255;72050;-83
2022/09/28 00:09:21;;;;;;;11.30;9.20;;;;;;;14.29;97.22;99381.17;106788;1255;71012;-83
2022/09/28 00:11:51;;;;;;;17.60;10.50;;;;;;;14.30;97.37;99381.40;106600;1255;72974;-83
2022/09/28 00:14:20;;;;;;;14.70;9.40;;;;;;;14.32;95.88;99382.37;106816;1255;63164;-84
2022/09/28 00:16:49;;;;;;;10.30;8.10;;;;;;;14.31;97.22;99386.12;107185;1254;59340;-84
2022/09/28 00:19:18;;;;;;;10.50;8.70;;;;;;;14.29;97.54;99382.88;107068;1254;71561;-85
2022/09/28 00:21:47;;;;;;;12.20;8.60;;;;;;;14.28;98.00;99380.57;107116;1254;71458;-85
2022/09/28 00:24:16;;;;;;;10.40;8.30;;;;;;;14.27;98.11;99383.70;107030;1254;69187;-84
2022/09/28 00:26:55;;;;;;;13.90;10.20;;;;;;;14.27;97.77;99376.30;107109;1255;73991;-85
2022/09/28 00:29:33;;;;;;;11.60;9.10;;;;;;;14.29;97.66;99364.68;107081;1255;62062;-85
2022/09/28 00:32:11;;;;;;;11.30;9.00;;;;;;;14.28;97.46;99361.48;107141;1254;58759;-84
2022/09/28 00:34:44;;;;;;;14.30;9.40;;;;;;;14.27;97.48;99355.42;106822;1255;73817;-87
2022/09/28 00:37:14;;;;;;;12.40;9.60;;;;;;;14.28;97.39;99355.32;107206;1254;70069;-83
2022/09/28 00:39:43;;;;;;;13.50;10.50;;;;;;;14.30;97.76;99354.64;106809;1255;70647;-84
2022/09/28 00:42:22;;;;;;;14.10;10.60;;;;;;;14.30;98.57;99355.65;107162;1254;74756;-85
2022/09/28 00:44:53;;;;;;;14.40;9.90;;;;;;;14.29;98.13;99355.61;106984;1254;61946;-85
2022/09/28 00:47:52;;;;;;;12.50;9.00;;;;;;;14.27;97.85;99358.05;107183;1254;59952;-83
2022/09/28 00:50:32;;;;;;;12.50;9.40;;;;;;;14.27;98.01;99358.80;107060;1255;73260;-83
2022/09/28 00:53:20;;;;;;;11.40;8.60;;;;;;;14.27;98.15;99356.02;107144;1253;71472;-84
2022/09/28 00:55:58;;;;;;;11.50;8.80;;;;;;;14.28;97.71;99352.65;106921;1254;68413;-82
2022/09/28 00:58:35;;;;;;;10.40;8.30;;;;;;;14.31;97.30;99348.36;106992;1254;73938;-82
2022/09/28 01:01:04;;;;;;;11.70;9.40;;;;;;;14.35;97.08;99341.48;106969;1254;61616;-84
2022/09/28 01:03:34;;;;;;;14.00;10.10;;;;;;;14.36;97.07;99340.84;106985;1255;60088;-83
2022/09/28 01:06:05;;;;;;;11.90;9.60;;;;;;;14.37;97.40;99339.84;106993;1255;74302;-83
2022/09/28 01:08:36;;;;;;;14.00;9.20;;;;;;;14.40;97.74;99336.55;106990;1255;68633;-84
2022/09/28 01:11:05;;;;;;;15.20;10.50;;;;;;;14.43;99.77;99343.73;107024;1255;70639;-88
2022/09/28 01:13:34;;;;;;;10.20;8.80;;;;;;;14.45;100.00;99344.72;107156;1255;74309;-87
2022/09/28 01:16:42;;;;;;;12.90;9.90;;;;;;;14.49;99.77;99344.58;107181;1254;62851;-80
2022/09/28 01:20:04;;;;;;;12.00;9.30;;;;;;;14.58;98.92;99336.45;107153;1254;60839;-83
2022/09/28 01:23:20;;;;;;;11.50;9.30;;;;;;;14.66;98.29;99333.21;107119;1254;75132;-82
2022/09/28 01:26:23;;;;;;;13.90;10.10;;;;;;;14.73;98.14;99336.23;107080;1255;73153;-81
2022/09/28 01:29:01;;;;;;;14.40;10.50;;;;;;;14.74;98.46;99336.46;107135;1255;70978;-84
2022/09/28 01:31:34;;;;;;;13.10;11.10;;;;;;;14.78;98.59;99342.09;107026;1254;74392;-84
2022/09/28 01:34:13;;;;;;;13.10;10.40;;;;;;;14.83;98.57;99335.79;106961;1255;61171;-84
2022/09/28 01:36:49;;;;;;;10.60;8.70;;;;;;;14.85;97.76;99335.41;106947;1255;59858;-87
2022/09/28 01:39:35;;;;;;;13.10;9.70;;;;;;;14.87;97.10;99334.02;107017;1255;73173;-86
2022/09/28 01:42:13;;;;;;;10.90;9.20;;;;;;;14.87;96.98;99331.15;107071;1254;71578;-86
2022/09/28 01:44:46;;;;;;;12.60;8.30;;;;;;;14.89;96.70;99325.60;106919;1255;69170;-86
2022/09/28 01:47:20;;;;;;;15.80;10.20;;;;;;;14.87;96.60;99325.90;107071;1254;73144;-86
2022/09/28 01:50:06;;;;;;;14.50;10.60;;;;;;;14.86;97.59;99324.45;107103;1254;62028;-88
2022/09/28 01:52:58;;;;;;;12.30;10.20;;;;;;;14.85;98.03;99323.33;107131;1254;60823;-84
2022/09/28 01:55:43;;;;;;;11.70;9.60;;;;;;;14.87;97.71;99322.65;106992;1255;73365;-85
2022/09/28 01:58:21;;;;;;;15.20;9.90;;;;;;;14.87;97.79;99326.31;107088;1255;71584;-86
2022/09/28 02:00:59;;;;;;;14.30;10.00;;;;;;;14.88;98.05;99325.95;107209;1254;69805;-85
2022/09/28 02:04:14;;;;;;;14.30;10.70;;;;;;;14.88;98.16;99331.94;107332;1254;72033;-87
2022/09/28 02:06:55;;;;;;;14.50;10.40;;;;;;;14.90;97.98;99336.05;107146;1253;61801;-81
2022/09/28 02:09:46;;;;;;;15.20;11.80;;;;;;;14.91;97.77;99333.55;107097;1254;62812;-83
2022/09/28 02:12:30;;;;;;;14.50;10.60;;;;;;;14.93;97.68;99330.54;106814;1254;75286;-87
2022/09/28 02:15:15;;;;;;;14.20;10.30;;;;;;;14.91;97.71;99331.59;107029;1253;70817;-85
2022/09/28 02:17:45;;;;;;;15.10;11.10;;;;;;;14.92;97.53;99335.20;106626;1254;70683;-82
2022/09/28 02:20:16;;;;;;;17.80;10.70;;;;;;;14.91;97.87;99337.08;106990;1252;74356;-84
2022/09/28 02:22:51;;;;;;;13.80;10.10;;;;;;;14.88;98.20;99334.20;107213;1253;62201;-81
2022/09/28 02:25:41;;;;;;;12.30;10.30;;;;;;;14.88;98.46;99337.77;106774;1252;60547;-79
2022/09/28 02:28:12;;;;;;;12.10;10.40;;;;;;;14.91;97.89;99344.17;106975;1253;73956;-78
2022/09/28 02:30:43;;;;;;;16.30;9.90;;;;;;;14.95;98.00;99348.29;107072;1252;73145;-81
2022/09/28 02:33:34;;;;;;;14.00;10.70;;;;;;;14.98;97.68;99353.58;107144;1255;70170;-84
2022/09/28 02:36:03;;;;;;;13.10;10.30;;;;;;;15.02;97.53;99362.23;107866;1254;73114;-85
2022/09/28 02:38:37;;;;;;;17.00;10.30;;;;;;;15.05;97.35;99362.33;108401;1254;62495;-86
2022/09/28 02:41:35;;;;;;;13.40;9.40;;;;;;;15.06;96.82;99364.29;107086;1255;59532;-86
2022/09/28 02:44:35;;;;;;;12.80;9.50;;;;;;;15.06;96.79;99367.11;106755;1254;71818;-83
2022/09/28 02:48:02;;;;;;;13.80;9.50;;;;;;;15.06;96.99;99365.83;106888;1255;72371;-81
2022/09/28 02:51:05;;;;;;;11.80;9.70;;;;;;;15.06;96.86;99376.18;106821;1254;69427;-82
2022/09/28 02:54:09;;;;;;;16.00;10.90;;;;;;;15.08;96.67;99381.36;106906;1254;74032;-85
2022/09/28 02:57:15;;;;;;;15.90;10.80;;;;;;;15.06;95.89;99388.41;107096;1254;62825;-86
2022/09/28 03:00:11;;;;;;;15.90;10.60;;;;;;;15.03;95.41;99385.95;107023;1255;62082;-83
2022/09/28 03:03:29;;;;;;;13.90;10.40;;;;;;;14.98;96.13;99381.21;106768;1256;72851;-83
2022/09/28 03:06:01;;;;;;;12.10;10.30;;;;;;;14.97;97.51;99376.85;107021;1253;69956;-83
2022/09/28 03:09:24;;;;;;;16.00;11.10;;;;;;;14.89;98.71;99378.42;106996;1254;68878;-82
2022/09/28 03:11:59;;;;;;;16.40;12.40;;;;;;;14.88;98.94;99372.39;106962;1254;71261;-82
2022/09/28 03:14:28;;;;;;;16.50;11.50;;;;;;;14.87;99.13;99372.90;107065;1255;60911;-82
2022/09/28 03:16:57;;;;;;;16.60;12.10;;;;;;;14.91;98.78;99378.23;107023;1254;60766;-84
2022/09/28 03:19:33;;;;;;;18.20;10.70;;;;;;;14.98;98.61;99369.79;107078;1254;73127;-81
2022/09/28 03:22:02;;;;;;;15.40;9.60;;;;;;;14.99;97.98;99365.98;106884;1255;70206;-83
2022/09/28 03:24:31;;;;;;;12.70;10.30;;;;;;;14.95;97.30;99366.17;106762;1255;70333;-86
2022/09/28 03:26:59;;;;;;;13.90;10.70;;;;;;;14.92;96.95;99366.39;106884;1255;72532;-83
2022/09/28 03:29:30;;;;;;;16.10;10.50;;;;;;;14.90;97.56;99372.94;106787;1254;60688;-82
2022/09/28 03:32:01;;;;;;;13.20;8.90;;;;;;;14.93;97.88;99374.98;106885;1254;59723;-82
2022/09/28 03:34:29;;;;;;;13.00;9.30;;;;;;;14.91;96.48;99381.83;106895;1254;73045;-80
2022/09/28 03:36:58;;;;;;;15.00;10.30;;;;;;;14.64;97.14;99385.91;106878;1254;69710;-81
2022/09/28 03:39:27;;;;;;;16.80;11.80;;;;;;;14.38;97.81;99391.56;106999;1254;69285;-86
2022/09/28 03:41:56;;;;;;;14.80;10.10;;;;;;;14.25;98.75;99388.04;107134;1254;73211;-87
2022/09/28 03:44:24;;;;;;;15.10;10.90;;;;;;;14.17;99.33;99384.27;106822;1254;63388;-82
2022/09/28 03:46:53;;;;;;;14.50;11.30;;;;;;;14.09;99.63;99384.94;107115;1254;59534;-84
2022/09/28 03:49:22;;;;;;;16.20;12.40;;;;;;;14.06;99.97;99387.17;106917;1254;73532;-86
2022/09/28 03:51:50;;;;;;;20.40;12.60;;;;;;;13.94;100.00;99382.02;106906;1253;70564;-85
2022/09/28 03:54:19;;;;;;;23.60;13.20;;;;;;;13.86;100.00;99381.66;106982;1254;69262;-82
2022/09/28 03:56:49;;;;;;;22.70;14.90;;;;;;;13.90;100.00;99386.29;107121;1252;72962;-81
2022/09/28 03:59:18;;;;;;;18.50;12.70;;;;;;;13.95;100.00;99383.56;107017;1253;62357;-83
2022/09/28 04:01:51;;;;;;;17.50;11.70;;;;;;;14.02;100.00;99380.01;107033;1252;60040;-81
2022/09/28 04:04:20;;;;;;;23.20;12.70;;;;;;;14.12;100.00;99386.02;106976;1254;72549;-85
2022/09/28 04:06:48;;;;;;;20.30;12.50;;;;;;;14.14;100.00;99385.48;107108;1253;72320;-85
2022/09/28 04:09:17;;;;;;;21.40;12.50;;;;;;;14.21;100.00;99389.05;107008;1254;68497;-81
2022/09/28 04:11:46;;;;;;;22.20;12.60;;;;;;;14.17;100.00;99390.02;107086;1252;72948;-81
2022/09/28 04:14:31;;;;;;;18.50;11.30;;;;;;;14.18;100.00;99392.30;107148;1252;62162;-81
2022/09/28 04:17:00;;;;;;;15.00;10.20;;;;;;;14.25;100.00;99390.83;107038;1254;61835;-79
2022/09/28 04:19:32;;;;;;;17.70;12.70;;;;;;;14.23;100.00;99390.08;107094;1254;72224;-82
2022/09/28 04:22:50;;;;;;;22.10;12.20;;;;;;;14.14;100.00;99393.54;107047;1252;69668;-77
2022/09/28 04:25:19;;;;;;;19.80;11.90;;;;;;;14.15;100.00;99397.20;106727;1254;69786;-79
2022/09/28 04:30:36;;;;;;;16.30;10.90;;;;;;;14.29;100.00;99405.86;106979;1253;62953;-73
2022/09/28 04:33:05;;;;;;;15.80;11.50;;;;;;;14.24;99.99;99406.95;107310;1252;62635;-78
2022/09/28 04:35:34;;;;;;;17.00;11.90;;;;;;;14.25;100.00;99410.69;106974;1254;73428;-82
2022/09/28 04:38:03;;;;;;;18.70;11.20;;;;;;;14.23;100.00;99413.88;106934;1253;72731;-80
2022/09/28 04:40:31;;;;;;;18.40;10.90;;;;;;;14.23;100.00;99412.63;106945;1254;71016;-78
2022/09/28 04:43:07;;;;;;;23.40;13.70;;;;;;;14.19;100.00;99408.70;106998;1254;73339;-82
2022/09/28 04:45:36;;;;;;;18.70;13.70;;;;;;;14.14;100.00;99408.34;106787;1254;64069;-79
2022/09/28 04:48:08;;;;;;;21.50;13.50;;;;;;;14.22;100.00;99410.83;107657;1252;61007;-81
2022/09/28 04:50:59;;;;;;;24.50;13.20;;;;;;;14.34;100.00;99412.71;107192;1253;72263;-79
2022/09/28 04:53:29;;;;;;;18.80;12.70;;;;;;;14.46;100.00;99406.14;107048;1252;70925;-77
2022/09/28 04:56:05;;;;;;;25.50;13.50;;;;;;;14.58;100.00;99409.31;107169;1255;69620;-78
2022/09/28 04:58:35;;;;;;;22.60;13.40;;;;;;;14.67;99.99;99407.19;109200;1252;74398;-79
2022/09/28 05:01:12;;;;;;;22.20;13.00;;;;;;;14.69;100.00;99408.66;108989;1253;61135;-81
2022/09/28 05:03:55;;;;;;;14.10;10.80;;;;;;;14.87;99.75;99416.55;109217;1253;60469;-79
2022/09/28 05:06:36;;;;;;;20.50;10.90;;;;;;;15.00;98.71;99425.19;109206;1252;74187;-80
2022/09/28 05:09:08;;;;;;;16.00;11.50;;;;;;;15.06;98.23;99429.47;108156;1254;70734;-75
2022/09/28 05:11:37;;;;;;;18.70;12.10;;;;;;;14.98;98.32;99427.52;108228;1253;68789;-82
2022/09/28 05:14:11;;;;;;;17.40;11.50;;;;;;;14.92;98.90;99421.36;107013;1254;73583;-77
2022/09/28 05:16:40;;;;;;;21.10;11.90;;;;;;;14.96;98.93;99421.73;106836;1255;61989;-80
2022/09/28 05:19:35;;;;;;;19.90;12.40;;;;;;;15.04;98.45;99427.94;107012;1252;60594;-79
2022/09/28 05:22:06;;;;;;;19.40;12.30;;;;;;;15.14;97.94;99428.45;106984;1254;72354;-78
2022/09/28 05:24:41;;;;;;;19.80;11.70;;;;;;;15.26;97.29;99427.09;106830;1255;70238;-79
2022/09/28 05:27:10;;;;;;;19.80;12.00;;;;;;;15.22;97.56;99431.21;107078;1254;68729;-78
2022/09/28 05:29:39;;;;;;;26.50;13.00;;;;;;;15.23;97.35;99425.95;106965;1254;74139;-79
2022/09/28 05:33:02;;;;;;;20.90;12.60;;;;;;;15.23;97.22;99421.92;106796;1254;61872;-76
2022/09/28 05:35:42;;;;;;;30.30;15.80;;;;;;;15.35;96.99;99421.71;107006;1254;61356;-75
2022/09/28 05:38:10;;;;;;;29.00;14.00;;;;;;;15.42;96.22;99423.16;107350;1255;73619;-76
2022/09/28 05:40:39;;;;;;;18.30;10.70;;;;;;;15.57;96.02;99427.11;107538;1254;71108;-79
2022/09/28 05:43:08;;;;;;;19.80;11.70;;;;;;;15.52;96.04;99426.76;107132;1254;68278;-78
2022/09/28 05:45:37;;;;;;;15.90;10.80;;;;;;;15.49;96.42;99431.50;107028;1254;74028;-77
2022/09/28 05:48:05;;;;;;;17.60;12.10;;;;;;;15.52;96.16;99432.89;106847;1255;63450;-77
2022/09/28 05:50:34;;;;;;;28.30;16.30;;;;;;;15.52;95.93;99435.04;107084;1254;60244;-77
2022/09/28 05:53:08;;;;;;;22.80;12.20;;;;;;;15.50;96.53;99434.02;106847;1254;71783;-78
2022/09/28 05:55:38;;;;;;;32.90;14.10;;;;;;;15.55;96.29;99438.70;106906;1254;69627;-77
2022/09/28 05:58:07;;;;;;;17.10;10.00;;;;;;;15.60;96.27;99445.36;106971;1254;69485;-78
2022/09/28 06:00:36;;;;;;;16.80;11.30;;;;;;;15.68;95.26;99446.77;106957;1254;73027;-76
2022/09/28 06:03:13;;;;;;;22.30;12.60;;;;;;;15.61;95.27;99451.17;106808;1255;63551;-77
2022/09/28 06:05:41;;;;;;;18.00;11.90;;;;;;;15.52;95.71;99457.84;106887;1254;61920;-81
2022/09/28 06:08:10;;;;;;;108.60;21.20;;;;;;;15.41;95.78;99460.66;106930;1254;72518;-76
2022/09/28 06:10:43;;;;;;;205.50;33.10;;;;;;;15.35;96.14;99462.69;107048;1254;71806;-80
2022/09/28 06:13:12;;;;;;;674.30;99.40;;;;;;;15.16;98.25;99461.02;106874;1255;69234;-77
2022/09/28 06:15:45;;;;;;;36.00;15.80;;;;;;;15.21;97.97;99467.06;106826;1256;71274;-79
2022/09/28 06:18:14;;;;;;;1505.00;251.60;;;;;;;15.28;97.30;99455.59;106830;1255;61376;-75
2022/09/28 06:21:32;;;;;;;120.50;22.00;;;;;;;15.43;96.81;99449.52;106609;1259;61477;-77
2022/09/28 06:24:03;;;;;;;574.00;79.80;;;;;;;15.54;96.77;99452.45;106402;1260;75177;-79
2022/09/28 06:26:32;;;;;;;601.90;87.30;;;;;;;15.69;96.31;99443.23;106475;1260;71089;-79
2022/09/28 06:29:02;;;;;;;152.90;25.90;;;;;;;15.85;95.14;99442.89;106512;1260;71120;-79
2022/09/28 06:31:31;;;;;;;1963.80;320.50;;;;;;;15.95;94.43;99441.54;106684;1257;72370;-76
2022/09/28 06:34:00;;;;;;;266.50;43.70;;;;;;;16.05;94.03;99440.89;106592;1259;59629;-77
2022/09/28 06:36:32;;;;;;;40.30;14.90;;;;;;;16.27;93.20;99452.27;106508;1257;59843;-79
2022/09/28 06:39:02;;;;;;;42.20;15.50;;;;;;;16.52;91.94;99452.67;106759;1258;72590;-79
2022/09/28 06:41:31;;;;;;;122.20;24.90;;;;;;;16.56;90.97;99451.93;106841;1257;72382;-78
2022/09/28 06:44:07;;;;;;;75.10;17.80;;;;;;;16.76;90.40;99448.66;106761;1258;70302;-81
2022/09/28 06:46:55;;;;;;;25.30;12.60;;;;;;;16.90;89.55;99445.52;106892;1255;62653;-82
2022/09/28 06:50:44;;;;;;;13.40;9.70;;;;;;;17.06;87.55;99448.92;106521;1261;59631;-81
2022/09/28 06:53:28;;;;;;;44.50;14.80;;;;;;;17.05;86.60;99447.29;106318;1260;61337;-80
2022/09/28 06:56:01;;;;;;;20.90;11.60;;;;;;;17.03;87.58;99444.02;106835;1255;63544;-79
2022/09/28 06:58:31;;;;;;;38.90;14.10;;;;;;;17.11;86.98;99444.31;106850;1255;61162;-77
2022/09/28 07:01:01;;;;;;;16.70;11.00;;;;;;;17.24;86.04;99445.63;106803;1255;61740;-78
2022/09/28 07:03:36;;;;;;;14.00;9.80;;;;;;;17.34;85.96;99447.45;106591;1257;63369;-77
2022/09/28 07:06:25;;;;;;;99.30;20.80;;;;;;;17.42;85.05;99452.46;106720;1257;59594;-78
2022/09/28 07:09:47;;;;;;;25.20;11.10;;;;;;;17.52;84.90;99450.58;106557;1255;61491;-81
2022/09/28 07:13:03;;;;;;;760.00;100.50;;;;;;;17.60;84.15;99452.30;106553;1256;74220;-80
2022/09/28 07:15:44;;;;;;;41.90;14.30;;;;;;;17.61;84.09;99459.41;106806;1255;72911;-79
2022/09/28 07:18:16;;;;;;;245.90;33.60;;;;;;;17.66;84.02;99462.92;106702;1257;70224;-79
2022/09/28 07:20:45;;;;;;;15.00;9.90;;;;;;;17.84;82.54;99466.75;106823;1255;63825;-79
2022/09/28 07:23:23;;;;;;;236.30;32.30;;;;;;;17.68;83.39;99473.23;106613;1257;62053;-79
2022/09/28 07:26:45;;;;;;;972.10;122.80;;;;;;;17.59;84.47;99474.25;106463;1255;61561;-80
2022/09/28 07:29:28;;;;;;;397.40;51.90;;;;;;;17.64;84.68;99470.70;106562;1255;73653;-79
2022/09/28 07:32:02;;;;;;;37.30;11.90;;;;;;;17.71;83.62;99473.02;106701;1255;72213;-79
2022/09/28 07:34:49;;;;;;;1279.40;202.90;;;;;;;17.68;83.47;99482.05;106700;1255;70558;-80
2022/09/28 07:37:37;;;;;;;827.80;116.40;;;;;;;17.62;84.12;99482.65;106612;1257;64505;-81
2022/09/28 07:42:55;;;;;;;31.40;12.70;;;;;;;17.77;83.94;99471.89;106662;1257;59618;-81
2022/09/28 07:45:24;;;;;;;135.10;22.90;;;;;;;17.80;83.68;99472.20;106537;1257;64811;-80
2022/09/28 07:47:56;;;;;;;127.00;22.30;;;;;;;17.82;82.63;99470.05;106660;1257;72339;-80
2022/09/28 07:50:53;;;;;;;1099.40;167.80;;;;;;;17.82;82.30;99472.55;106685;1257;71054;-78
2022/09/28 07:53:46;;;;;;;26.60;9.70;;;;;;;17.94;81.71;99479.98;106801;1257;63848;-81
2022/09/28 07:56:33;;;;;;;132.90;21.90;;;;;;;18.10;79.73;99480.59;106819;1257;64059;-79
2022/09/28 07:59:08;;;;;;;19.90;10.90;;;;;;;18.33;79.18;99485.15;106765;1257;59047;-80
2022/09/28 08:01:39;;;;;;;25.20;10.20;;;;;;;18.42;79.38;99488.47;106771;1258;64640;-80
2022/09/28 08:04:11;;;;;;;50.30;12.90;;;;;;;18.59;78.72;99480.71;106742;1257;72319;-79
2022/09/28 08:06:43;;;;;;;12.40;9.70;;;;;;;18.64;77.72;99475.13;106719;1257;70968;-82
2022/09/28 08:09:13;;;;;;;15.80;9.10;;;;;;;18.69;76.84;99482.32;106690;1255;73149;-85
2022/09/28 08:12:02;;;;;;;123.30;22.00;;;;;;;18.61;76.95;99480.11;106640;1257;63609;-81
2022/09/28 08:15:24;;;;;;;;;;;;;;;18.69;75.14;99484.83;106495;1257;59673;-79
2022/09/28 08:17:57;;;;;;;20.00;10.00;;;;;;;18.60;75.47;99491.66;106663;1257;73721;-81
2022/09/28 08:23:19;;;;;;;11.40;7.90;;;;;;;18.52;76.24;99499.94;106620;1256;59804;-79
2022/09/28 08:25:52;;;;;;;11.00;7.20;;;;;;;18.44;76.03;99508.91;106659;1257;73995;-80
2022/09/28 08:28:23;;;;;;;657.30;103.70;;;;;;;18.36;76.68;99516.28;106643;1258;59653;-79
2022/09/28 08:31:00;;;;;;;15.40;8.10;;;;;;;18.39;76.48;99518.67;106800;1257;59535;-80
2022/09/28 08:33:33;;;;;;;12.80;6.40;;;;;;;18.48;75.91;99523.74;106729;1257;74490;-76
2022/09/28 08:36:49;;;;;;;91.50;13.80;;;;;;;18.44;75.68;99528.30;106561;1258;62442;-81
2022/09/28 08:40:24;;;;;;;8.40;5.50;;;;;;;18.53;74.91;99526.14;106367;1260;69874;-79
2022/09/28 08:44:23;;;;;;;8.70;6.30;;;;;;;18.67;73.67;99529.41;106701;1257;73694;-79
2022/09/28 08:48:42;;;;;;;8.60;6.10;;;;;;;18.75;72.76;99530.71;106788;1258;57858;-77
2022/09/28 08:50:23;;;;;;;7.30;5.70;;;;;;;18.90;72.52;99531.74;106756;1257;61431;-82
2022/09/28 08:54:31;;;;;;;10.90;5.80;;;;;;;19.05;72.14;99528.72;106697;1258;63747;-81
2022/09/28 08:57:44;;;;;;;7.50;5.20;;;;;;;19.26;69.82;99525.34;106908;1257;63387;-81
2022/09/28 09:00:21;;;;;;;8.00;4.30;;;;;;;19.44;68.29;99520.54;106733;1257;59370;-81
2022/09/28 09:02:50;;;;;;;9.80;4.90;;;;;;;19.63;65.66;99524.88;106886;1257;73139;-79
2022/09/28 09:05:38;;;;;;;397.40;56.50;;;;;;;19.65;66.38;99526.44;106942;1256;58013;-82
2022/09/28 09:08:20;;;;;;;422.80;51.80;;;;;;;19.66;65.57;99529.25;106605;1257;338425;-79
2022/09/28 09:11:43;;;;;;;1221.70;245.60;;;;;;;19.73;65.31;99526.59;106876;1257;64667;-77
2022/09/28 09:15:02;;;;;;;13.80;4.50;;;;;;;19.87;62.50;99522.52;106337;1255;72390;-79
2022/09/28 09:17:59;;;;;;;4.00;3.00;;;;;;;20.06;60.76;99517.14;106718;1257;60586;-84
2022/09/28 09:20:58;;;;;;;21.80;5.60;;;;;;;20.27;60.84;99517.79;108284;1255;73953;-82
2022/09/28 09:24:03;;;;;;;8.10;3.40;;;;;;;20.40;59.88;99522.94;107557;1257;57976;-79
2022/09/28 09:26:38;;;;;;;6.90;3.10;;;;;;;20.45;59.87;99524.88;106866;1257;60657;-81
2022/09/28 09:29:28;;;;;;;8.40;3.40;;;;;;;20.53;59.79;99519.95;106860;1257;63989;-80
2022/09/28 09:32:11;;;;;;;7.30;2.90;;;;;;;20.64;58.68;99513.95;106783;1258;61721;-79
2022/09/28 09:35:06;;;;;;;35.50;5.50;;;;;;;20.72;56.89;99514.59;106977;1254;59857;-80
2022/09/28 09:38:18;;;;;;;6.70;2.70;;;;;;;20.79;55.91;99510.30;106835;1256;73586;-77
2022/09/28 09:41:23;;;;;;;5.10;2.80;;;;;;;20.93;55.39;99510.03;106917;1257;62024;-81
2022/09/28 09:45:03;;;;;;;7.50;2.30;;;;;;;21.07;55.03;99506.30;106700;1257;59587;-81
2022/09/28 09:48:09;;;;;;;5.30;2.20;;;;;;;21.21;52.75;99513.00;106852;1254;63874;-85
2022/09/28 09:51:18;;;;;;;3.30;1.80;;;;;;;21.27;53.44;99511.55;106778;1257;61080;-80
2022/09/28 09:54:01;;;;;;;2.40;1.40;;;;;;;21.31;52.06;99514.02;106383;1257;60151;-82
2022/09/28 09:56:43;;;;;;;2.20;1.70;;;;;;;21.29;51.52;99510.01;106710;1257;72657;-81
2022/09/28 09:59:56;;;;;;;6.10;1.90;;;;;;;21.36;50.25;99504.15;106670;1257;59634;-80
2022/09/28 10:02:47;;;;;;;4.60;2.30;;;;;;;21.46;49.13;99510.21;106790;1257;60535;-78
2022/09/28 10:05:31;;;;;;;3.00;1.90;;;;;;;21.53;49.72;99511.16;106679;1257;64172;-81
2022/09/28 10:08:22;;;;;;;3.30;1.70;;;;;;;21.63;50.09;99514.42;106931;1254;72066;-84
2022/09/28 10:11:32;;;;;;;3.00;1.60;;;;;;;21.69;50.11;99514.11;106831;1257;60482;-81
2022/09/28 10:14:07;;;;;;;2.30;1.60;;;;;;;21.85;48.82;99509.40;106156;1264;74107;-80
2022/09/28 10:16:46;;;;;;;4.60;2.20;;;;;;;22.06;48.21;99509.17;106692;1257;59027;-81
2022/09/28 10:19:34;;;;;;;5.10;2.10;;;;;;;22.42;47.14;99514.74;106668;1257;57757;-81
2022/09/28 10:22:26;;;;;;;4.10;2.00;;;;;;;22.65;47.19;99518.28;106746;1257;73740;-82
2022/09/28 10:24:59;;;;;;;4.10;1.80;;;;;;;22.99;45.83;99520.64;106763;1257;62348;-83
2022/09/28 10:27:38;;;;;;;2.50;1.90;;;;;;;23.10;45.65;99519.92;106704;1257;60280;-84
2022/09/28 10:30:07;;;;;;;3.70;2.00;;;;;;;23.30;46.14;99520.94;106999;1254;63360;-83
2022/09/28 10:32:44;;;;;;;4.30;2.10;;;;;;;23.66;44.98;99522.16;106982;1257;61522;-83
2022/09/28 10:35:26;;;;;;;3.90;2.10;;;;;;;23.82;44.27;99518.56;106718;1257;58361;-85
2022/09/28 10:38:16;;;;;;;4.40;2.20;;;;;;;23.81;43.84;99517.38;106923;1257;63294;-84
2022/09/28 10:41:26;;;;;;;3.20;1.70;;;;;;;24.02;44.17;99519.06;106690;1257;72333;-86
2022/09/28 10:44:05;;;;;;;2.80;2.20;;;;;;;24.41;42.82;99516.95;106727;1256;70256;-86
2022/09/28 10:47:31;;;;;;;6.10;1.90;;;;;;;24.56;42.00;99511.02;106801;1257;63624;-85
2022/09/28 10:50:00;;;;;;;4.90;2.30;;;;;;;24.71;41.80;99506.55;107039;1254;59613;-83
2022/09/28 10:52:32;;;;;;;17.70;3.60;;;;;;;24.97;41.60;99502.23;106893;1257;59757;-84
2022/09/28 10:55:23;;;;;;;8.80;3.70;;;;;;;25.09;41.03;99511.02;106878;1255;74538;-86
2022/09/28 10:57:53;;;;;;;4.10;2.20;;;;;;;25.26;41.18;99504.24;106575;1257;72789;-86
2022/09/28 11:00:37;;;;;;;9.70;2.50;;;;;;;24.98;40.58;99503.27;106913;1257;60478;-83
2022/09/28 11:03:24;;;;;;;17.60;3.30;;;;;;;25.03;40.83;99495.77;107011;1255;73266;-85
2022/09/28 11:06:06;;;;;;;6.60;2.40;;;;;;;25.07;40.67;99496.90;106874;1257;61310;-85
2022/09/28 11:08:40;;;;;;;;;;;;;;;24.77;40.84;99500.18;106797;1257;59555;-82
2022/09/28 11:11:20;;;;;;;5.40;2.50;;;;;;;24.49;41.72;99496.13;106577;1257;73817;-81
2022/09/28 11:14:02;;;;;;;6.60;2.50;;;;;;;24.28;41.82;99496.88;106515;1257;71880;-85
2022/09/28 11:16:35;;;;;;;4.20;2.20;;;;;;;24.14;42.21;99505.27;106715;1257;60543;-85
2022/09/28 11:19:27;;;;;;;7.30;2.70;;;;;;;23.85;42.99;99506.70;106579;1257;75025;-81
2022/09/28 11:21:55;;;;;;;11.60;2.90;;;;;;;23.60;43.45;99498.77;106657;1257;62186;-83
2022/09/28 11:24:32;;;;;;;4.40;2.90;;;;;;;23.41;44.04;99502.52;106843;1254;60159;-83
2022/09/28 11:27:03;;;;;;;7.20;2.80;;;;;;;23.34;44.33;99499.88;106481;1257;74564;-83
2022/09/28 11:29:44;;;;;;;6.00;3.00;;;;;;;23.20;44.73;99500.55;106748;1257;63136;-83
2022/09/28 11:33:40;;;;;;;5.70;2.70;;;;;;;23.22;45.07;99498.98;106701;1257;61413;-82
2022/09/28 11:37:01;;;;;;;2.80;2.10;;;;;;;23.22;44.87;99497.23;106638;1257;73200;-81
2022/09/28 11:40:06;;;;;;;2.90;2.10;;;;;;;23.31;44.46;99497.61;106900;1257;62696;-83
2022/09/28 11:43:09;;;;;;;3.90;2.40;;;;;;;23.35;44.42;99496.70;106806;1257;59575;-82
2022/09/28 11:45:54;;;;;;;3.40;2.50;;;;;;;23.44;44.80;99500.70;106795;1254;74505;-81
2022/09/28 11:48:46;;;;;;;3.90;2.20;;;;;;;23.44;45.02;99503.06;106926;1254;73047;-83
2022/09/28 11:51:40;;;;;;;5.60;2.60;;;;;;;23.46;44.97;99504.55;106622;1257;60425;-83
2022/09/28 11:54:27;;;;;;;3.50;2.20;;;;;;;23.50;45.13;99507.38;106780;1257;73993;-80
2022/09/28 11:57:00;;;;;;;2.80;2.10;;;;;;;23.57;44.90;99510.77;106946;1254;59711;-83
2022/09/28 11:59:52;;;;;;;;;;;;;;;23.47;44.36;99517.47;106960;1254;60739;-80
2022/09/28 12:02:44;;;;;;;3.00;2.10;;;;;;;23.37;44.83;99523.94;106745;1257;74976;-84
2022/09/28 12:05:41;;;;;;;3.00;2.10;;;;;;;23.28;44.86;99523.80;106675;1257;72952;-84
2022/09/28 12:08:27;;;;;;;3.90;2.40;;;;;;;23.23;43.87;99522.45;106935;1257;70613;-80
2022/09/28 12:11:31;;;;;;;7.60;2.90;;;;;;;23.30;44.05;99522.79;106865;1257;64084;-81
2022/09/28 12:14:26;;;;;;;6.30;2.70;;;;;;;23.50;44.75;99520.70;106846;1257;59652;-83
2022/09/28 12:17:44;;;;;;;4.40;2.30;;;;;;;23.64;43.70;99521.01;106831;1256;61343;-81
2022/09/28 12:20:28;;;;;;;5.00;2.40;;;;;;;23.88;43.34;99520.23;106860;1257;75008;-84
2022/09/28 12:23:25;;;;;;;3.90;2.10;;;;;;;24.30;43.29;99523.67;106911;1257;72668;-84
2022/09/28 12:26:03;;;;;;;4.60;2.40;;;;;;;24.82;40.89;99522.66;106973;1255;60624;-81
2022/09/28 12:28:47;;;;;;;3.40;1.90;;;;;;;25.36;40.40;99520.14;106891;1255;63411;-83
2022/09/28 12:31:38;;;;;;;3.50;1.90;;;;;;;26.04;38.77;99523.02;106855;1257;61442;-83
2022/09/28 12:34:08;;;;;;;4.60;2.10;;;;;;;26.58;36.90;99527.84;106884;1256;58401;-86
2022/09/28 12:37:09;;;;;;;3.10;2.30;;;;;;;26.97;36.63;99535.55;106748;1257;64571;-85